createdAt,value
2018-09-24T00:00:19.186Z,1008.57
2018-09-24T00:01:19.160Z,1008.55
2018-09-24T00:02:19.093Z,1008.63
2018-09-24T00:03:19.083Z,1008.59
2018-09-24T00:04:19.095Z,1008.64
2018-09-24T00:05:19.058Z,1008.66
2018-09-24T00:06:19.047Z,1008.67
2018-09-24T00:07:19.037Z,1008.70
2018-09-24T00:08:19.054Z,1008.73
2018-09-24T00:09:19.040Z,1008.76
2018-09-24T00:10:19.007Z,1008.78
2018-09-24T00:11:18.992Z,1008.77
2018-09-24T00:12:18.982Z,1008.81
2018-09-24T00:13:18.974Z,1008.83
2018-09-24T00:14:18.981Z,1008.84
2018-09-24T00:15:18.948Z,1008.85
2018-09-24T00:16:18.939Z,1008.86
2018-09-24T00:17:18.925Z,1008.85
2018-09-24T00:18:18.950Z,1008.91
2018-09-24T00:19:18.928Z,1008.89
2018-09-24T00:20:18.893Z,1008.92
2018-09-24T00:21:18.883Z,1008.94
2018-09-24T00:22:18.870Z,1008.97
2018-09-24T00:23:18.857Z,1008.93
2018-09-24T00:24:18.870Z,1008.99
2018-09-24T00:25:18.834Z,1008.94
2018-09-24T00:26:18.836Z,1008.98
2018-09-24T00:27:18.812Z,1008.99
2018-09-24T00:28:18.802Z,1009.01
2018-09-24T00:29:18.814Z,1009.03
2018-09-24T00:30:18.777Z,1008.98
2018-09-24T00:31:18.773Z,1009.02
2018-09-24T00:32:18.759Z,1009.03
2018-09-24T00:33:18.745Z,1009.04
2018-09-24T00:34:18.757Z,1009.07
2018-09-24T00:35:18.725Z,1009.11
2018-09-24T00:36:18.712Z,1009.11
2018-09-24T00:37:18.697Z,1009.18
2018-09-24T00:38:18.707Z,1009.18
2018-09-24T00:39:18.697Z,1009.22
2018-09-24T00:40:18.670Z,1009.29
2018-09-24T00:41:18.692Z,1009.27
2018-09-24T00:42:18.647Z,1009.28
2018-09-24T00:43:18.633Z,1009.33
2018-09-24T00:44:18.641Z,1009.39
2018-09-24T00:45:18.643Z,1009.37
2018-09-24T00:46:18.600Z,1009.39
2018-09-24T00:47:18.586Z,1009.36
2018-09-24T00:48:18.575Z,1009.35
2018-09-24T00:49:18.587Z,1009.39
2018-09-24T00:50:18.555Z,1009.38
2018-09-24T00:51:18.541Z,1009.39
2018-09-24T00:52:18.529Z,1009.45
2018-09-24T00:53:18.525Z,1009.44
2018-09-24T00:54:18.559Z,1009.48
2018-09-24T00:55:18.493Z,1009.45
2018-09-24T00:56:18.486Z,1009.46
2018-09-24T00:57:18.473Z,1009.49
2018-09-24T00:58:18.461Z,1009.46
2018-09-24T00:59:18.473Z,1009.50
2018-09-24T01:00:18.446Z,1009.47
2018-09-24T01:01:18.432Z,1009.53
2018-09-24T01:02:18.446Z,1009.53
2018-09-24T01:03:18.407Z,1009.59
2018-09-24T01:04:18.416Z,1009.57
2018-09-24T01:05:18.381Z,1009.61
2018-09-24T01:06:18.377Z,1009.63
2018-09-24T01:07:18.370Z,1009.65
2018-09-24T01:08:18.353Z,1009.68
2018-09-24T01:09:18.363Z,1009.68
2018-09-24T01:10:18.327Z,1009.73
2018-09-24T01:11:18.336Z,1009.72
2018-09-24T01:12:18.328Z,1009.76
2018-09-24T01:13:18.295Z,1009.78
2018-09-24T01:14:18.313Z,1009.79
2018-09-24T01:15:18.296Z,1009.80
2018-09-24T01:16:18.258Z,1009.87
2018-09-24T01:17:18.269Z,1009.88
2018-09-24T01:18:18.236Z,1009.90
2018-09-24T01:19:18.228Z,1009.90
2018-09-24T01:20:18.238Z,1009.91
2018-09-24T01:21:18.201Z,1009.92
2018-09-24T01:22:18.238Z,1009.93
2018-09-24T01:23:18.184Z,1009.95
2018-09-24T01:24:18.170Z,1009.96
2018-09-24T01:25:18.179Z,1010.00
2018-09-24T01:26:18.144Z,1010.03
2018-09-24T01:27:18.135Z,1010.00
2018-09-24T01:28:18.123Z,1010.03
2018-09-24T01:29:18.115Z,1010.05
2018-09-24T01:30:18.146Z,1010.02
2018-09-24T01:31:18.089Z,1010.04
2018-09-24T01:32:18.078Z,1010.11
2018-09-24T01:33:18.068Z,1010.11
2018-09-24T01:34:18.056Z,1010.06
2018-09-24T01:35:18.068Z,1010.08
2018-09-24T01:36:18.035Z,1010.13
2018-09-24T01:37:18.021Z,1010.13
2018-09-24T01:38:18.041Z,1010.16
2018-09-24T01:39:18.004Z,1010.23
2018-09-24T01:40:18.011Z,1010.19
2018-09-24T01:41:17.982Z,1010.24
2018-09-24T01:42:17.965Z,1010.23
2018-09-24T01:43:17.953Z,1010.24
2018-09-24T01:44:17.943Z,1010.25
2018-09-24T01:45:17.958Z,1010.26
2018-09-24T01:46:17.926Z,1010.25
2018-09-24T01:47:17.912Z,1010.31
2018-09-24T01:48:17.899Z,1010.28
2018-09-24T01:49:17.889Z,1010.29
2018-09-24T01:50:17.901Z,1010.31
2018-09-24T01:51:17.861Z,1010.35
2018-09-24T01:52:17.855Z,1010.37
2018-09-24T01:53:17.879Z,1010.43
2018-09-24T01:54:17.834Z,1010.44
2018-09-24T01:55:17.841Z,1010.44
2018-09-24T01:56:17.840Z,1010.52
2018-09-24T01:57:17.801Z,1010.54
2018-09-24T01:58:17.785Z,1010.60
2018-09-24T01:59:17.776Z,1010.55
2018-09-24T02:00:17.784Z,1010.58
2018-09-24T02:01:17.772Z,1010.57
2018-09-24T02:02:17.743Z,1010.58
2018-09-24T02:03:17.725Z,1010.60
2018-09-24T02:04:17.719Z,1010.64
2018-09-24T02:05:17.771Z,1010.67
2018-09-24T02:06:17.694Z,1010.71
2018-09-24T02:07:17.683Z,1010.75
2018-09-24T02:08:17.673Z,1010.77
2018-09-24T02:09:17.685Z,1010.78
2018-09-24T02:10:17.672Z,1010.79
2018-09-24T02:11:17.638Z,1010.76
2018-09-24T02:12:17.630Z,1010.77
2018-09-24T02:13:17.615Z,1010.74
2018-09-24T02:14:17.604Z,1010.77
2018-09-24T02:15:17.644Z,1010.75
2018-09-24T02:16:17.583Z,1010.77
2018-09-24T02:17:17.578Z,1010.80
2018-09-24T02:18:17.557Z,1010.78
2018-09-24T02:19:17.552Z,1010.79
2018-09-24T02:20:17.557Z,1010.83
2018-09-24T02:21:17.524Z,1010.80
2018-09-24T02:22:17.517Z,1010.81
2018-09-24T02:23:17.503Z,1010.82
2018-09-24T02:24:17.489Z,1010.80
2018-09-24T02:25:17.500Z,1010.80
2018-09-24T02:26:17.475Z,1010.78
2018-09-24T02:27:17.459Z,1010.80
2018-09-24T02:28:17.447Z,1010.80
2018-09-24T02:29:17.460Z,1010.79
2018-09-24T02:30:17.446Z,1010.79
2018-09-24T02:31:17.416Z,1010.82
2018-09-24T02:32:17.407Z,1010.86
2018-09-24T02:33:17.391Z,1010.85
2018-09-24T02:34:17.379Z,1010.83
2018-09-24T02:35:17.390Z,1010.84
2018-09-24T02:36:17.363Z,1010.88
2018-09-24T02:37:17.353Z,1010.86
2018-09-24T02:38:17.331Z,1010.84
2018-09-24T02:39:17.326Z,1010.91
2018-09-24T02:40:17.384Z,1010.92
2018-09-24T02:41:17.300Z,1010.95
2018-09-24T02:42:17.295Z,1010.93
2018-09-24T02:43:17.298Z,1010.95
2018-09-24T02:44:17.263Z,1010.96
2018-09-24T02:45:17.283Z,1010.98
2018-09-24T02:46:17.265Z,1010.98
2018-09-24T02:47:17.232Z,1011.01
2018-09-24T02:48:17.224Z,1011.01
2018-09-24T02:49:17.207Z,1011.05
2018-09-24T02:50:17.199Z,1011.12
2018-09-24T02:51:17.210Z,1011.15
2018-09-24T02:52:17.178Z,1011.15
2018-09-24T02:53:17.164Z,1011.15
2018-09-24T02:54:17.151Z,1011.15
2018-09-24T02:55:17.168Z,1011.18
2018-09-24T02:56:17.150Z,1011.16
2018-09-24T02:57:17.121Z,1011.16
2018-09-24T02:58:17.107Z,1011.21
2018-09-24T02:59:17.101Z,1011.17
2018-09-24T03:00:17.084Z,1011.20
2018-09-24T03:01:17.158Z,1011.25
2018-09-24T03:02:17.063Z,1011.25
2018-09-24T03:03:17.048Z,1011.28
2018-09-24T03:04:17.082Z,1011.27
2018-09-24T03:05:17.031Z,1011.29
2018-09-24T03:06:17.045Z,1011.29
2018-09-24T03:07:17.006Z,1011.34
2018-09-24T03:08:16.999Z,1011.28
2018-09-24T03:09:16.983Z,1011.31
2018-09-24T03:10:16.985Z,1011.30
2018-09-24T03:11:16.984Z,1011.35
2018-09-24T03:12:16.958Z,1011.31
2018-09-24T03:13:16.940Z,1011.35
2018-09-24T03:14:16.928Z,1011.32
2018-09-24T03:15:16.939Z,1011.32
2018-09-24T03:16:16.927Z,1011.37
2018-09-24T03:17:16.892Z,1011.38
2018-09-24T03:18:16.881Z,1011.41
2018-09-24T03:19:16.870Z,1011.42
2018-09-24T03:20:16.891Z,1011.45
2018-09-24T03:21:16.873Z,1011.47
2018-09-24T03:22:16.834Z,1011.48
2018-09-24T03:23:16.827Z,1011.51
2018-09-24T03:24:16.816Z,1011.51
2018-09-24T03:25:16.805Z,1011.49
2018-09-24T03:26:16.836Z,1011.52
2018-09-24T03:27:16.782Z,1011.53
2018-09-24T03:28:16.768Z,1011.53
2018-09-24T03:29:16.762Z,1011.51
2018-09-24T03:30:16.777Z,1011.56
2018-09-24T03:31:16.758Z,1011.52
2018-09-24T03:32:16.723Z,1011.57
2018-09-24T03:33:16.714Z,1011.55
2018-09-24T03:34:16.701Z,1011.55
2018-09-24T03:35:16.693Z,1011.55
2018-09-24T03:36:16.698Z,1011.59
2018-09-24T03:37:16.666Z,1011.56
2018-09-24T03:38:16.653Z,1011.55
2018-09-24T03:39:16.676Z,1011.57
2018-09-24T03:40:16.634Z,1011.58
2018-09-24T03:41:16.643Z,1011.57
2018-09-24T03:42:16.651Z,1011.58
2018-09-24T03:43:16.596Z,1011.68
2018-09-24T03:44:16.592Z,1011.71
2018-09-24T03:45:16.575Z,1011.67
2018-09-24T03:46:16.622Z,1011.67
2018-09-24T03:47:16.558Z,1011.69
2018-09-24T03:48:16.541Z,1011.74
2018-09-24T03:49:16.535Z,1011.75
2018-09-24T03:50:16.543Z,1011.76
2018-09-24T03:51:16.532Z,1011.80
2018-09-24T03:52:16.525Z,1011.80
2018-09-24T03:53:16.487Z,1011.83
2018-09-24T03:54:16.474Z,1011.85
2018-09-24T03:55:16.486Z,1011.89
2018-09-24T03:56:16.475Z,1011.89
2018-09-24T03:57:16.438Z,1011.87
2018-09-24T03:58:16.452Z,1011.86
2018-09-24T03:59:16.417Z,1011.83
2018-09-24T04:00:16.434Z,1011.85
2018-09-24T04:01:16.402Z,1011.85
2018-09-24T04:02:16.382Z,1011.89
2018-09-24T04:03:16.374Z,1011.84
2018-09-24T04:04:16.362Z,1011.92
2018-09-24T04:05:16.373Z,1011.92
2018-09-24T04:06:16.399Z,1011.91
2018-09-24T04:07:16.329Z,1011.99
2018-09-24T04:08:16.318Z,1011.97
2018-09-24T04:09:16.333Z,1012.01
2018-09-24T04:10:16.350Z,1012.03
2018-09-24T04:11:16.304Z,1012.05
2018-09-24T04:12:16.271Z,1012.06
2018-09-24T04:13:16.273Z,1012.07
2018-09-24T04:14:16.250Z,1012.12
2018-09-24T04:15:16.235Z,1012.09
2018-09-24T04:16:16.252Z,1012.15
2018-09-24T04:17:16.218Z,1012.16
2018-09-24T04:18:16.205Z,1012.17
2018-09-24T04:19:16.194Z,1012.18
2018-09-24T04:20:16.180Z,1012.20
2018-09-24T04:21:16.215Z,1012.18
2018-09-24T04:22:16.158Z,1012.19
2018-09-24T04:23:16.151Z,1012.22
2018-09-24T04:24:16.136Z,1012.25
2018-09-24T04:25:16.147Z,1012.23
2018-09-24T04:26:16.213Z,1012.24
2018-09-24T04:27:16.131Z,1012.27
2018-09-24T04:28:16.090Z,1012.22
2018-09-24T04:29:16.109Z,1012.22
2018-09-24T04:30:16.068Z,1012.23
2018-09-24T04:31:16.056Z,1012.23
2018-09-24T04:32:16.077Z,1012.26
2018-09-24T04:33:16.044Z,1012.24
2018-09-24T04:34:16.023Z,1012.21
2018-09-24T04:35:16.012Z,1012.28
2018-09-24T04:36:16.013Z,1012.26
2018-09-24T04:37:16.008Z,1012.30
2018-09-24T04:38:15.982Z,1012.31
2018-09-24T04:39:15.967Z,1012.31
2018-09-24T04:40:15.954Z,1012.33
2018-09-24T04:41:15.948Z,1012.36
2018-09-24T04:42:15.982Z,1012.39
2018-09-24T04:43:15.922Z,1012.39
2018-09-24T04:44:15.908Z,1012.42
2018-09-24T04:45:15.903Z,1012.40
2018-09-24T04:46:15.890Z,1012.39
2018-09-24T04:47:15.899Z,1012.40
2018-09-24T04:48:15.868Z,1012.45
2018-09-24T04:49:15.977Z,1012.48
2018-09-24T04:50:15.840Z,1012.47
2018-09-24T04:51:15.834Z,1012.48
2018-09-24T04:52:15.842Z,1012.51
2018-09-24T04:53:15.811Z,1012.50
2018-09-24T04:54:15.799Z,1012.59
2018-09-24T04:55:15.787Z,1012.63
2018-09-24T04:56:15.795Z,1012.61
2018-09-24T04:57:15.816Z,1012.65
2018-09-24T04:58:15.753Z,1012.71
2018-09-24T04:59:15.743Z,1012.77
2018-09-24T05:00:15.733Z,1012.75
2018-09-24T05:01:15.718Z,1012.75
2018-09-24T05:02:15.728Z,1012.75
2018-09-24T05:03:15.697Z,1012.77
2018-09-24T05:04:15.685Z,1012.75
2018-09-24T05:05:15.676Z,1012.76
2018-09-24T05:06:15.663Z,1012.74
2018-09-24T05:07:15.674Z,1012.77
2018-09-24T05:08:15.643Z,1012.86
2018-09-24T05:09:15.633Z,1012.84
2018-09-24T05:10:15.711Z,1012.82
2018-09-24T05:11:15.606Z,1012.83
2018-09-24T05:12:15.617Z,1012.84
2018-09-24T05:13:15.593Z,1012.86
2018-09-24T05:14:15.570Z,1012.85
2018-09-24T05:15:15.561Z,1012.92
2018-09-24T05:16:15.620Z,1012.92
2018-09-24T05:17:15.573Z,1012.98
2018-09-24T05:18:15.526Z,1012.98
2018-09-24T05:19:15.513Z,1012.99
2018-09-24T05:20:15.582Z,1013.01
2018-09-24T05:21:15.502Z,1013.00
2018-09-24T05:22:15.500Z,1013.05
2018-09-24T05:23:15.475Z,1013.03
2018-09-24T05:24:15.472Z,1013.04
2018-09-24T05:25:15.449Z,1013.02
2018-09-24T05:26:15.437Z,1013.07
2018-09-24T05:27:15.531Z,1013.05
2018-09-24T05:28:15.413Z,1013.09
2018-09-24T05:29:15.401Z,1013.15
2018-09-24T05:30:15.390Z,1013.12
2018-09-24T05:31:15.440Z,1013.16
2018-09-24T05:32:15.420Z,1013.18
2018-09-24T05:33:15.354Z,1013.20
2018-09-24T05:34:15.425Z,1013.18
2018-09-24T05:35:15.334Z,1013.18
2018-09-24T05:36:15.328Z,1013.17
2018-09-24T05:37:15.332Z,1013.23
2018-09-24T05:38:15.299Z,1013.23
2018-09-24T05:39:15.287Z,1013.22
2018-09-24T05:40:15.280Z,1013.28
2018-09-24T05:41:15.328Z,1013.25
2018-09-24T05:42:15.275Z,1013.31
2018-09-24T05:43:15.249Z,1013.28
2018-09-24T05:44:15.235Z,1013.35
2018-09-24T05:45:15.225Z,1013.36
2018-09-24T05:46:15.220Z,1013.36
2018-09-24T05:47:15.219Z,1013.40
2018-09-24T05:48:15.186Z,1013.40
2018-09-24T05:49:15.177Z,1013.40
2018-09-24T05:50:15.163Z,1013.44
2018-09-24T05:51:15.152Z,1013.43
2018-09-24T05:52:15.163Z,1013.51
2018-09-24T05:53:15.147Z,1013.46
2018-09-24T05:54:15.183Z,1013.48
2018-09-24T05:55:15.108Z,1013.52
2018-09-24T05:56:15.111Z,1013.55
2018-09-24T05:57:15.106Z,1013.59
2018-09-24T05:58:15.074Z,1013.56
2018-09-24T05:59:15.074Z,1013.61
2018-09-24T06:00:15.051Z,1013.66
2018-09-24T06:01:15.040Z,1013.66
2018-09-24T06:02:15.051Z,1013.65
2018-09-24T06:03:15.018Z,1013.70
2018-09-24T06:04:15.021Z,1013.71
2018-09-24T06:05:14.995Z,1013.76
2018-09-24T06:06:14.984Z,1013.79
2018-09-24T06:07:15.004Z,1013.78
2018-09-24T06:08:14.960Z,1013.83
2018-09-24T06:09:14.951Z,1013.82
2018-09-24T06:10:14.949Z,1013.89
2018-09-24T06:11:14.940Z,1013.84
2018-09-24T06:12:14.916Z,1013.88
2018-09-24T06:13:14.928Z,1013.92
2018-09-24T06:14:14.898Z,1013.95
2018-09-24T06:15:14.896Z,1013.94
2018-09-24T06:16:14.872Z,1013.96
2018-09-24T06:17:14.860Z,1013.99
2018-09-24T06:18:14.871Z,1014.07
2018-09-24T06:19:14.838Z,1014.03
2018-09-24T06:20:14.845Z,1014.05
2018-09-24T06:21:14.817Z,1014.04
2018-09-24T06:22:14.806Z,1014.06
2018-09-24T06:23:14.839Z,1014.05
2018-09-24T06:24:14.782Z,1014.06
2018-09-24T06:25:14.801Z,1014.10
2018-09-24T06:26:14.796Z,1014.11
2018-09-24T06:27:14.749Z,1014.06
2018-09-24T06:28:14.765Z,1014.13
2018-09-24T06:29:14.825Z,1014.13
2018-09-24T06:30:14.715Z,1014.11
2018-09-24T06:31:14.705Z,1014.11
2018-09-24T06:32:14.691Z,1014.16
2018-09-24T06:33:14.729Z,1014.18
2018-09-24T06:34:14.694Z,1014.19
2018-09-24T06:35:14.667Z,1014.17
2018-09-24T06:36:14.646Z,1014.15
2018-09-24T06:37:14.645Z,1014.18
2018-09-24T06:38:14.647Z,1014.18
2018-09-24T06:39:14.627Z,1014.20
2018-09-24T06:40:14.601Z,1014.19
2018-09-24T06:41:14.682Z,1014.20
2018-09-24T06:42:14.591Z,1014.21
2018-09-24T06:43:14.587Z,1014.25
2018-09-24T06:44:14.555Z,1014.30
2018-09-24T06:45:14.545Z,1014.30
2018-09-24T06:46:14.536Z,1014.28
2018-09-24T06:47:14.521Z,1014.35
2018-09-24T06:48:14.566Z,1014.35
2018-09-24T06:49:14.502Z,1014.33
2018-09-24T06:50:14.496Z,1014.39
2018-09-24T06:51:14.476Z,1014.37
2018-09-24T06:52:14.475Z,1014.38
2018-09-24T06:53:14.478Z,1014.42
2018-09-24T06:54:14.444Z,1014.48
2018-09-24T06:55:14.432Z,1014.47
2018-09-24T06:56:14.432Z,1014.48
2018-09-24T06:57:14.409Z,1014.55
2018-09-24T06:58:14.420Z,1014.50
2018-09-24T06:59:14.409Z,1014.50
2018-09-24T07:00:14.377Z,1014.51
2018-09-24T07:01:14.372Z,1014.55
2018-09-24T07:02:14.354Z,1014.53
2018-09-24T07:03:14.365Z,1014.56
2018-09-24T07:04:14.345Z,1014.58
2018-09-24T07:05:14.339Z,1014.60
2018-09-24T07:06:14.308Z,1014.55
2018-09-24T07:07:14.297Z,1014.54
2018-09-24T07:08:14.309Z,1014.59
2018-09-24T07:09:14.274Z,1014.54
2018-09-24T07:10:14.316Z,1014.55
2018-09-24T07:11:14.276Z,1014.55
2018-09-24T07:12:14.268Z,1014.56
2018-09-24T07:13:14.249Z,1014.56
2018-09-24T07:14:14.216Z,1014.57
2018-09-24T07:15:14.243Z,1014.56
2018-09-24T07:16:14.194Z,1014.58
2018-09-24T07:17:14.184Z,1014.64
2018-09-24T07:18:14.219Z,1014.62
2018-09-24T07:19:14.164Z,1014.63
2018-09-24T07:20:14.151Z,1014.66
2018-09-24T07:21:14.138Z,1014.66
2018-09-24T07:22:14.127Z,1014.67
2018-09-24T07:23:14.163Z,1014.68
2018-09-24T07:24:14.112Z,1014.75
2018-09-24T07:25:14.103Z,1014.74
2018-09-24T07:26:14.081Z,1014.75
2018-09-24T07:27:14.070Z,1014.75
2018-09-24T07:28:14.121Z,1014.74
2018-09-24T07:29:14.047Z,1014.80
2018-09-24T07:30:14.058Z,1014.82
2018-09-24T07:31:14.033Z,1014.80
2018-09-24T07:32:14.016Z,1014.80
2018-09-24T07:33:14.091Z,1014.82
2018-09-24T07:34:14.003Z,1014.84
2018-09-24T07:35:13.980Z,1014.87
2018-09-24T07:36:13.971Z,1014.84
2018-09-24T07:37:14.014Z,1014.91
2018-09-24T07:38:13.970Z,1014.86
2018-09-24T07:39:13.936Z,1014.90
2018-09-24T07:40:13.931Z,1014.93
2018-09-24T07:41:13.910Z,1014.90
2018-09-24T07:42:13.901Z,1014.93
2018-09-24T07:43:14.029Z,1014.94
2018-09-24T07:44:13.878Z,1014.96
2018-09-24T07:45:13.871Z,1014.97
2018-09-24T07:46:13.905Z,1014.99
2018-09-24T07:47:13.852Z,1015.03
2018-09-24T07:48:13.867Z,1015.11
2018-09-24T07:49:13.998Z,1015.15
2018-09-24T07:50:13.833Z,1015.11
2018-09-24T07:51:13.804Z,1015.14
2018-09-24T07:52:13.981Z,1015.17
2018-09-24T07:53:13.777Z,1015.17
2018-09-24T07:54:13.789Z,1015.21
2018-09-24T07:55:13.782Z,1015.19
2018-09-24T07:56:13.743Z,1015.17
2018-09-24T07:57:13.744Z,1015.25
2018-09-24T07:58:13.728Z,1015.25
2018-09-24T07:59:13.729Z,1015.31
2018-09-24T08:00:13.702Z,1015.29
2018-09-24T08:01:13.687Z,1015.33
2018-09-24T08:02:13.690Z,1015.37
2018-09-24T08:03:13.663Z,1015.37
2018-09-24T08:04:13.698Z,1015.36
2018-09-24T08:05:13.640Z,1015.37
2018-09-24T08:06:13.639Z,1015.41
2018-09-24T08:07:13.683Z,1015.46
2018-09-24T08:08:13.607Z,1015.52
2018-09-24T08:09:13.620Z,1015.50
2018-09-24T08:10:13.587Z,1015.53
2018-09-24T08:11:13.579Z,1015.51
2018-09-24T08:12:13.562Z,1015.56
2018-09-24T08:13:13.642Z,1015.58
2018-09-24T08:14:13.564Z,1015.59
2018-09-24T08:15:13.528Z,1015.63
2018-09-24T08:16:13.517Z,1015.67
2018-09-24T08:17:13.551Z,1015.69
2018-09-24T08:18:13.542Z,1015.69
2018-09-24T08:19:13.503Z,1015.70
2018-09-24T08:20:13.485Z,1015.71
2018-09-24T08:21:13.491Z,1015.73
2018-09-24T08:22:13.448Z,1015.69
2018-09-24T08:23:13.437Z,1015.73
2018-09-24T08:24:13.485Z,1015.78
2018-09-24T08:25:13.415Z,1015.75
2018-09-24T08:26:13.411Z,1015.74
2018-09-24T08:27:13.396Z,1015.72
2018-09-24T08:28:13.387Z,1015.71
2018-09-24T08:29:13.392Z,1015.67
2018-09-24T08:30:13.360Z,1015.73
2018-09-24T08:31:13.350Z,1015.70
2018-09-24T08:32:13.337Z,1015.71
2018-09-24T08:33:13.324Z,1015.76
2018-09-24T08:34:13.333Z,1015.75
2018-09-24T08:35:13.304Z,1015.73
2018-09-24T08:36:13.359Z,1015.72
2018-09-24T08:37:13.280Z,1015.76
2018-09-24T08:38:13.313Z,1015.86
2018-09-24T08:39:13.286Z,1015.88
2018-09-24T08:40:13.248Z,1015.85
2018-09-24T08:41:13.240Z,1015.87
2018-09-24T08:42:13.236Z,1015.87
2018-09-24T08:43:13.218Z,1015.87
2018-09-24T08:44:13.304Z,1015.88
2018-09-24T08:45:13.189Z,1015.95
2018-09-24T08:46:13.211Z,1015.96
2018-09-24T08:47:13.181Z,1015.92
2018-09-24T08:48:13.154Z,1015.94
2018-09-24T08:49:13.175Z,1015.97
2018-09-24T08:50:13.140Z,1015.98
2018-09-24T08:51:13.124Z,1015.98
2018-09-24T08:52:13.128Z,1015.93
2018-09-24T08:53:13.119Z,1015.93
2018-09-24T08:54:13.108Z,1015.91
2018-09-24T08:55:13.076Z,1015.94
2018-09-24T08:56:13.066Z,1015.88
2018-09-24T08:57:13.162Z,1015.88
2018-09-24T08:58:13.043Z,1015.88
2018-09-24T08:59:13.054Z,1015.89
2018-09-24T09:00:13.020Z,1015.89
2018-09-24T09:01:13.010Z,1015.88
2018-09-24T09:02:12.999Z,1015.94
2018-09-24T09:03:12.998Z,1015.93
2018-09-24T09:04:12.996Z,1015.89
2018-09-24T09:05:12.964Z,1015.87
2018-09-24T09:06:12.953Z,1015.87
2018-09-24T09:07:12.941Z,1015.88
2018-09-24T09:08:12.935Z,1015.93
2018-09-24T09:09:12.944Z,1015.90
2018-09-24T09:10:12.918Z,1015.89
2018-09-24T09:11:12.897Z,1015.90
2018-09-24T09:12:12.888Z,1015.91
2018-09-24T09:13:12.873Z,1015.92
2018-09-24T09:14:12.884Z,1015.90
2018-09-24T09:15:12.851Z,1015.94
2018-09-24T09:16:12.849Z,1015.89
2018-09-24T09:17:12.871Z,1015.90
2018-09-24T09:18:12.829Z,1015.91
2018-09-24T09:19:12.829Z,1015.97
2018-09-24T09:20:12.811Z,1015.96
2018-09-24T09:21:12.784Z,1015.90
2018-09-24T09:22:12.773Z,1015.96
2018-09-24T09:23:12.764Z,1015.92
2018-09-24T09:24:12.777Z,1015.97
2018-09-24T09:25:12.737Z,1015.93
2018-09-24T09:26:12.728Z,1015.99
2018-09-24T09:27:12.953Z,1016.02
2018-09-24T09:28:12.713Z,1016.06
2018-09-24T09:29:12.721Z,1016.09
2018-09-24T09:30:12.683Z,1016.03
2018-09-24T09:31:12.675Z,1016.07
2018-09-24T09:32:12.704Z,1016.09
2018-09-24T09:33:12.656Z,1016.11
2018-09-24T09:34:12.652Z,1016.10
2018-09-24T09:35:12.707Z,1016.14
2018-09-24T09:36:12.614Z,1016.15
2018-09-24T09:37:12.604Z,1016.10
2018-09-24T09:38:12.604Z,1016.16
2018-09-24T09:39:12.582Z,1016.13
2018-09-24T09:40:12.592Z,1016.12
2018-09-24T09:41:12.696Z,1016.18
2018-09-24T09:42:12.550Z,1016.24
2018-09-24T09:43:12.546Z,1016.18
2018-09-24T09:44:12.526Z,1016.24
2018-09-24T09:45:12.536Z,1016.23
2018-09-24T09:46:12.503Z,1016.29
2018-09-24T09:47:12.491Z,1016.28
2018-09-24T09:48:12.479Z,1016.27
2018-09-24T09:49:12.489Z,1016.25
2018-09-24T09:50:12.480Z,1016.24
2018-09-24T09:51:12.447Z,1016.29
2018-09-24T09:52:12.435Z,1016.25
2018-09-24T09:53:12.425Z,1016.24
2018-09-24T09:54:12.412Z,1016.22
2018-09-24T09:55:12.452Z,1016.27
2018-09-24T09:56:12.389Z,1016.23
2018-09-24T09:57:12.380Z,1016.20
2018-09-24T09:58:12.367Z,1016.23
2018-09-24T09:59:12.418Z,1016.16
2018-09-24T10:00:12.380Z,1016.15
2018-09-24T10:01:12.334Z,1016.11
2018-09-24T10:02:12.322Z,1016.16
2018-09-24T10:03:12.324Z,1016.13
2018-09-24T10:04:12.299Z,1016.23
2018-09-24T10:05:12.311Z,1016.22
2018-09-24T10:06:12.310Z,1016.21
2018-09-24T10:07:12.267Z,1016.17
2018-09-24T10:08:12.257Z,1016.15
2018-09-24T10:09:12.246Z,1016.21
2018-09-24T10:10:12.253Z,1016.17
2018-09-24T10:11:12.269Z,1016.21
2018-09-24T10:12:12.213Z,1016.10
2018-09-24T10:13:12.212Z,1016.10
2018-09-24T10:14:12.187Z,1016.11
2018-09-24T10:15:12.199Z,1016.12
2018-09-24T10:16:12.170Z,1016.20
2018-09-24T10:17:12.164Z,1016.27
2018-09-24T10:18:12.143Z,1016.36
2018-09-24T10:19:12.131Z,1016.30
2018-09-24T10:20:12.141Z,1016.38
2018-09-24T10:21:12.108Z,1016.47
2018-09-24T10:22:12.097Z,1016.45
2018-09-24T10:23:12.292Z,1016.40
2018-09-24T10:24:12.077Z,1016.39
2018-09-24T10:25:12.089Z,1016.46
2018-09-24T10:26:12.057Z,1016.44
2018-09-24T10:27:12.050Z,1016.47
2018-09-24T10:28:12.029Z,1016.46
2018-09-24T10:29:12.022Z,1016.52
2018-09-24T10:30:12.058Z,1016.50
2018-09-24T10:31:12.000Z,1016.51
2018-09-24T10:32:11.993Z,1016.54
2018-09-24T10:33:11.973Z,1016.49
2018-09-24T10:34:11.964Z,1016.50
2018-09-24T10:35:12.023Z,1016.50
2018-09-24T10:36:11.941Z,1016.51
2018-09-24T10:37:11.929Z,1016.54
2018-09-24T10:38:11.937Z,1016.62
2018-09-24T10:39:11.943Z,1016.61
2018-09-24T10:40:11.916Z,1016.61
2018-09-24T10:41:11.883Z,1016.58
2018-09-24T10:42:11.912Z,1016.58
2018-09-24T10:43:11.860Z,1016.60
2018-09-24T10:44:11.854Z,1016.57
2018-09-24T10:45:11.860Z,1016.54
2018-09-24T10:46:11.946Z,1016.55
2018-09-24T10:47:11.844Z,1016.59
2018-09-24T10:48:11.834Z,1016.54
2018-09-24T10:49:11.795Z,1016.55
2018-09-24T10:50:11.806Z,1016.51
2018-09-24T10:51:11.799Z,1016.49
2018-09-24T10:52:11.758Z,1016.43
2018-09-24T10:53:11.747Z,1016.39
2018-09-24T10:54:11.739Z,1016.46
2018-09-24T10:55:11.747Z,1016.44
2018-09-24T10:56:11.720Z,1016.49
2018-09-24T10:57:11.746Z,1016.46
2018-09-24T10:58:11.694Z,1016.42
2018-09-24T10:59:11.685Z,1016.50
2018-09-24T11:00:11.777Z,1016.54
2018-09-24T11:01:11.659Z,1016.49
2018-09-24T11:02:11.646Z,1016.49
2018-09-24T11:03:11.637Z,1016.47
2018-09-24T11:04:11.646Z,1016.43
2018-09-24T11:05:11.634Z,1016.43
2018-09-24T11:06:11.605Z,1016.43
2018-09-24T11:07:11.591Z,1016.45
2018-09-24T11:08:11.577Z,1016.40
2018-09-24T11:09:11.567Z,1016.42
2018-09-24T11:10:11.654Z,1016.41
2018-09-24T11:11:11.551Z,1016.42
2018-09-24T11:12:11.536Z,1016.38
2018-09-24T11:13:11.525Z,1016.38
2018-09-24T11:14:11.513Z,1016.40
2018-09-24T11:15:11.541Z,1016.41
2018-09-24T11:16:11.716Z,1016.40
2018-09-24T11:17:11.601Z,1016.42
2018-09-24T11:18:11.532Z,1016.38
2018-09-24T11:19:11.466Z,1016.36
2018-09-24T11:20:11.441Z,1016.36
2018-09-24T11:21:11.454Z,1016.36
2018-09-24T11:22:11.426Z,1016.33
2018-09-24T11:23:11.676Z,1016.35
2018-09-24T11:24:11.402Z,1016.38
2018-09-24T11:25:11.388Z,1016.35
2018-09-24T11:26:11.398Z,1016.31
2018-09-24T11:27:11.366Z,1016.30
2018-09-24T11:28:11.369Z,1016.26
2018-09-24T11:29:11.349Z,1016.35
2018-09-24T11:30:11.329Z,1016.28
2018-09-24T11:31:11.400Z,1016.31
2018-09-24T11:32:11.336Z,1016.29
2018-09-24T11:33:11.293Z,1016.32
2018-09-24T11:34:11.283Z,1016.31
2018-09-24T11:35:11.294Z,1016.30
2018-09-24T11:36:11.290Z,1016.30
2018-09-24T11:37:11.255Z,1016.33
2018-09-24T11:38:11.248Z,1016.29
2018-09-24T11:39:11.227Z,1016.27
2018-09-24T11:40:11.218Z,1016.33
2018-09-24T11:41:11.237Z,1016.32
2018-09-24T11:42:11.277Z,1016.33
2018-09-24T11:43:11.182Z,1016.33
2018-09-24T11:44:11.172Z,1016.27
2018-09-24T11:45:11.177Z,1016.24
2018-09-24T11:46:11.170Z,1016.32
2018-09-24T11:47:11.248Z,1016.32
2018-09-24T11:48:11.124Z,1016.32
2018-09-24T11:49:11.116Z,1016.31
2018-09-24T11:50:11.125Z,1016.28
2018-09-24T11:51:11.113Z,1016.32
2018-09-24T11:52:11.079Z,1016.27
2018-09-24T11:53:11.068Z,1016.27
2018-09-24T11:54:11.057Z,1016.26
2018-09-24T11:55:11.049Z,1016.25
2018-09-24T11:56:11.062Z,1016.26
2018-09-24T11:57:11.035Z,1016.30
2018-09-24T11:58:11.014Z,1016.32
2018-09-24T11:59:11.000Z,1016.31
2018-09-24T12:00:10.990Z,1016.29
2018-09-24T12:01:11.000Z,1016.32
2018-09-24T12:02:11.011Z,1016.28
2018-09-24T12:03:10.955Z,1016.33
2018-09-24T12:04:10.964Z,1016.33
2018-09-24T12:05:10.932Z,1016.35